Ida — C4CZ2 — position and weather

sailwx.info

Track history (hours):
 
Tides and Currents Weather Stations Pressure Air Temp Water Temp Dewpoint Dewpoint Depression Visibility Wind Speed Wind Dir Waves Ship Positions

Ida

Last reported at 2014-Dec-17 14:18 UTC. Time now 2014-Dec-18 22:27 UTC.
Position N 57°49' E 010°23'.

Length 82 m; draft 4.1 m.

Type: Cargo ship. MMSI: 210319000.

Date/timePositionNaut miles runAvg speedWind from/ knotsBaromVisibWave heightAir tempDewpointWater temp
2014-Dec-17 14:18N 57°49' E 010°23'10 8.8
2014-Dec-17 13:10N 57°48' E 010°42'  
2014-Dec-13 16:18N 55°10' E 009°53'7 9.5
2014-Dec-13 15:33N 55°04' E 010°00'10 9.3
2014-Dec-13 14:30N 54°55' E 010°08'12 9.2
2014-Dec-13 13:14N 54°44' E 010°13'6 9.3
2014-Dec-13 12:33N 54°38' E 010°16'9 8.9
2014-Dec-13 11:33N 54°29' E 010°18'9 9.0
2014-Dec-13 10:33N 54°22' E 010°09'2 1.6
2014-Dec-13 09:33N 54°22' E 010°06'8 7.7
2014-Dec-13 08:33N 54°21' E 009°53'7 7.2
2014-Dec-13 07:33N 54°18' E 009°42'17 7.1
2014-Dec-13 05:14N 54°08' E 009°20'6 8.7
2014-Dec-13 04:34N 54°02' E 009°18'6 6.3
2014-Dec-13 03:34N 53°56' E 009°13'3 3.5
2014-Dec-13 02:34N 53°54' E 009°09'0 0.0
2014-Dec-13 01:34N 53°54' E 009°09'0 0.5
2014-Dec-13 00:34N 53°54' E 009°09'4 4.4
2014-Dec-12 23:34N 53°52' E 009°16'1111.4
2014-Dec-12 22:34N 53°43' E 009°28'1111.4
2014-Dec-12 21:33N 53°34' E 009°40'1010.5
2014-Dec-12 20:34N 53°33' E 009°57'2 2.0
2014-Dec-12 19:31N 53°32' E 010°00'0 0.0
2014-Dec-12 18:31N 53°32' E 010°00'0 0.0
2014-Dec-12 17:31N 53°32' E 010°00'0 0.0
2014-Dec-12 16:31N 53°32' E 010°00'0 0.0
2014-Dec-12 15:31N 53°32' E 010°00'0 0.0
2014-Dec-12 14:25N 53°32' E 010°00'0 0.0
2014-Dec-12 13:31N 53°32' E 010°00'0 0.0
2014-Dec-12 12:22N 53°32' E 010°00'0 0.0
2014-Dec-12 11:31N 53°32' E 010°00'0 0.0
2014-Dec-12 10:31N 53°32' E 010°00'0 0.0
2014-Dec-12 09:31N 53°32' E 010°00'0 0.0
2014-Dec-12 08:31N 53°32' E 010°00'0 0.0
2014-Dec-12 07:31N 53°32' E 010°00'0 0.0
2014-Dec-12 06:31N 53°32' E 010°00'0 0.0
2014-Dec-12 05:31N 53°32' E 010°00'0 0.3
2014-Dec-12 04:33N 53°32' E 009°60'8 7.8
2014-Dec-12 03:33N 53°33' E 009°47'1 1.4
2014-Dec-12 02:34N 53°34' E 009°45'0 0.0
2014-Dec-12 01:33N 53°34' E 009°45'0 0.0
2014-Dec-12 00:33N 53°34' E 009°45'0 0.0
2014-Dec-11 23:33N 53°34' E 009°45'0 0.0
2014-Dec-11 22:33N 53°34' E 009°45'0 0.0
2014-Dec-11 21:33N 53°34' E 009°45'4 3.9
2014-Dec-11 20:33N 53°33' E 009°51'4 3.7
2014-Dec-11 19:33N 53°31' E 009°57'0 0.0
2014-Dec-11 18:33N 53°31' E 009°57'0 0.0
2014-Dec-11 17:30N 53°31' E 009°57'0 0.0
2014-Dec-11 16:31N 53°31' E 009°57'0 0.0
2014-Dec-11 15:33N 53°31' E 009°57'0 0.0
2014-Dec-11 14:31N 53°31' E 009°57'0 0.0
2014-Dec-11 13:31N 53°31' E 009°57'0 0.0
2014-Dec-11 12:31N 53°31' E 009°57'0 0.0
2014-Dec-11 11:31N 53°31' E 009°57'0 0.0
2014-Dec-11 10:32N 53°31' E 009°57'0 0.0
2014-Dec-11 09:32N 53°31' E 009°57'0 0.0
2014-Dec-11 08:32N 53°31' E 009°57'0 0.0
2014-Dec-11 07:32N 53°31' E 009°57'0 0.0
2014-Dec-11 06:32N 53°31' E 009°57'0 0.1
2014-Dec-11 05:33N 53°31' E 009°56'6 6.2
2014-Dec-11 04:33N 53°33' E 009°47'7 7.1
2014-Dec-11 03:33N 53°36' E 009°35'6 6.5
2014-Dec-11 02:33N 53°42' E 009°30'7 6.5
2014-Dec-11 01:33N 53°47' E 009°23'6 6.4
2014-Dec-11 00:34N 53°52' E 009°17'7 6.6
2014-Dec-10 23:33N 53°52' E 009°06'7 6.9
2014-Dec-10 22:33N 53°50' E 008°54'7 6.6
2014-Dec-10 21:33N 53°52' E 008°44'6 5.6
2014-Dec-10 20:33N 53°57' E 008°38'5 5.5
2014-Dec-10 19:33N 53°58' E 008°30'5 5.2
2014-Dec-10 18:33N 53°59' E 008°21'6 6.3
2014-Dec-10 17:33N 53°59' E 008°10'6 6.1
2014-Dec-10 16:33N 53°56' E 008°01'4 4.0
2014-Dec-10 15:33N 53°53' E 008°05'8 7.7
2014-Dec-10 14:33N 53°46' E 008°10'9 9.0
2014-Dec-10 13:33N 53°41' E 008°22'8 7.6
2014-Dec-10 12:33N 53°35' E 008°32'0 0.0
2014-Dec-10 11:32N 53°35' E 008°32'0 0.0
2014-Dec-10 10:33N 53°35' E 008°32'0 0.0
2014-Dec-10 09:33N 53°35' E 008°32'0 0.0
2014-Dec-10 08:33N 53°35' E 008°32'0 0.0
2014-Dec-10 07:33N 53°35' E 008°32'0 0.0
2014-Dec-10 06:33N 53°35' E 008°32'0 0.0
2014-Dec-10 05:33N 53°35' E 008°32'0 0.0
2014-Dec-10 04:33N 53°35' E 008°32'0 0.0
2014-Dec-10 03:33N 53°35' E 008°32'0 0.0
2014-Dec-10 02:33N 53°35' E 008°32'0 0.0
2014-Dec-10 01:33N 53°35' E 008°32'0 0.0
2014-Dec-10 00:33N 53°35' E 008°32'0 0.0
2014-Dec-09 23:33N 53°35' E 008°32'2 1.7
2014-Dec-09 22:33N 53°37' E 008°30'5 5.2
2014-Dec-09 21:33N 53°40' E 008°23'5 4.9
2014-Dec-09 20:33N 53°43' E 008°17'8 8.4
2014-Dec-09 19:33N 53°49' E 008°06'10 9.3
2014-Dec-09 18:31N 53°52' E 007°51'11 8.2
2014-Dec-09 17:14N 53°59' E 007°37'6 8.4
2014-Dec-09 16:34N 54°04' E 007°33'8 8.4
2014-Dec-09 15:33N 54°11' E 007°26'8 8.4
2014-Dec-09 14:33N 54°19' E 007°24'9 8.7
2014-Dec-09 13:33N 54°28' E 007°23'9 9.2
2014-Dec-09 12:33N 54°37' E 007°23'10 9.5
2014-Dec-09 11:33N 54°47' E 007°23'1010.0
2014-Dec-09 10:33N 54°57' E 007°22'1010.0
2014-Dec-09 09:33N 55°07' E 007°22'10 9.9
2014-Dec-09 08:33N 55°17' E 007°21'10 9.6
2014-Dec-09 07:33N 55°26' E 007°21'9 9.0
2014-Dec-09 06:34N 55°35' E 007°20'9 8.8
2014-Dec-09 05:33N 55°44' E 007°25'150 8.9
2014-Dec-08 12:33N 58°08' E 008°40'9 9.2
2014-Dec-08 11:34N 58°17' E 008°45'  
Track history (hours):
 
Tides and Currents Weather Stations Pressure Air Temp Water Temp Dewpoint Dewpoint Depression Visibility Wind Speed Wind Dir Waves Ship Positions

Ida

Last reported at 2014-Dec-17 14:18 UTC. Time now 2014-Dec-18 22:27 UTC.
Position N 57°49' E 010°23'.

Length 82 m; draft 4.1 m.

Type: Cargo ship. MMSI: 210319000.

Date/timePositionNaut miles runAvg speedWind from/ knotsBaromVisibWave heightAir tempDewpointWater temp
2014-Dec-17 14:18N 57°49' E 010°23'10 8.8
2014-Dec-17 13:10N 57°48' E 010°42'  
2014-Dec-13 16:18N 55°10' E 009°53'7 9.5
2014-Dec-13 15:33N 55°04' E 010°00'10 9.3
2014-Dec-13 14:30N 54°55' E 010°08'12 9.2
2014-Dec-13 13:14N 54°44' E 010°13'6 9.3
2014-Dec-13 12:33N 54°38' E 010°16'9 8.9
2014-Dec-13 11:33N 54°29' E 010°18'9 9.0
2014-Dec-13 10:33N 54°22' E 010°09'2 1.6
2014-Dec-13 09:33N 54°22' E 010°06'8 7.7
2014-Dec-13 08:33N 54°21' E 009°53'7 7.2
2014-Dec-13 07:33N 54°18' E 009°42'17 7.1
2014-Dec-13 05:14N 54°08' E 009°20'6 8.7
2014-Dec-13 04:34N 54°02' E 009°18'6 6.3
2014-Dec-13 03:34N 53°56' E 009°13'3 3.5
2014-Dec-13 02:34N 53°54' E 009°09'0 0.0
2014-Dec-13 01:34N 53°54' E 009°09'0 0.5
2014-Dec-13 00:34N 53°54' E 009°09'4 4.4
2014-Dec-12 23:34N 53°52' E 009°16'1111.4
2014-Dec-12 22:34N 53°43' E 009°28'1111.4
2014-Dec-12 21:33N 53°34' E 009°40'1010.5
2014-Dec-12 20:34N 53°33' E 009°57'2 2.0
2014-Dec-12 19:31N 53°32' E 010°00'0 0.0
2014-Dec-12 18:31N 53°32' E 010°00'0 0.0
2014-Dec-12 17:31N 53°32' E 010°00'0 0.0
2014-Dec-12 16:31N 53°32' E 010°00'0 0.0
2014-Dec-12 15:31N 53°32' E 010°00'0 0.0
2014-Dec-12 14:25N 53°32' E 010°00'0 0.0
2014-Dec-12 13:31N 53°32' E 010°00'0 0.0
2014-Dec-12 12:22N 53°32' E 010°00'0 0.0
2014-Dec-12 11:31N 53°32' E 010°00'0 0.0
2014-Dec-12 10:31N 53°32' E 010°00'0 0.0
2014-Dec-12 09:31N 53°32' E 010°00'0 0.0
2014-Dec-12 08:31N 53°32' E 010°00'0 0.0
2014-Dec-12 07:31N 53°32' E 010°00'0 0.0
2014-Dec-12 06:31N 53°32' E 010°00'0 0.0
2014-Dec-12 05:31N 53°32' E 010°00'0 0.3
2014-Dec-12 04:33N 53°32' E 009°60'8 7.8
2014-Dec-12 03:33N 53°33' E 009°47'1 1.4
2014-Dec-12 02:34N 53°34' E 009°45'0 0.0
2014-Dec-12 01:33N 53°34' E 009°45'0 0.0
2014-Dec-12 00:33N 53°34' E 009°45'0 0.0
2014-Dec-11 23:33N 53°34' E 009°45'0 0.0
2014-Dec-11 22:33N 53°34' E 009°45'0 0.0
2014-Dec-11 21:33N 53°34' E 009°45'4 3.9
2014-Dec-11 20:33N 53°33' E 009°51'4 3.7
2014-Dec-11 19:33N 53°31' E 009°57'0 0.0
2014-Dec-11 18:33N 53°31' E 009°57'0 0.0
2014-Dec-11 17:30N 53°31' E 009°57'0 0.0
2014-Dec-11 16:31N 53°31' E 009°57'0 0.0
2014-Dec-11 15:33N 53°31' E 009°57'0 0.0
2014-Dec-11 14:31N 53°31' E 009°57'0 0.0
2014-Dec-11 13:31N 53°31' E 009°57'0 0.0
2014-Dec-11 12:31N 53°31' E 009°57'0 0.0
2014-Dec-11 11:31N 53°31' E 009°57'0 0.0
2014-Dec-11 10:32N 53°31' E 009°57'0 0.0
2014-Dec-11 09:32N 53°31' E 009°57'0 0.0
2014-Dec-11 08:32N 53°31' E 009°57'0 0.0
2014-Dec-11 07:32N 53°31' E 009°57'0 0.0
2014-Dec-11 06:32N 53°31' E 009°57'0 0.1
2014-Dec-11 05:33N 53°31' E 009°56'6 6.2
2014-Dec-11 04:33N 53°33' E 009°47'7 7.1
2014-Dec-11 03:33N 53°36' E 009°35'6 6.5
2014-Dec-11 02:33N 53°42' E 009°30'7 6.5
2014-Dec-11 01:33N 53°47' E 009°23'6 6.4
2014-Dec-11 00:34N 53°52' E 009°17'7 6.6
2014-Dec-10 23:33N 53°52' E 009°06'7 6.9
2014-Dec-10 22:33N 53°50' E 008°54'7 6.6
2014-Dec-10 21:33N 53°52' E 008°44'6 5.6
2014-Dec-10 20:33N 53°57' E 008°38'5 5.5
2014-Dec-10 19:33N 53°58' E 008°30'5 5.2
2014-Dec-10 18:33N 53°59' E 008°21'6 6.3
2014-Dec-10 17:33N 53°59' E 008°10'6 6.1
2014-Dec-10 16:33N 53°56' E 008°01'4 4.0
2014-Dec-10 15:33N 53°53' E 008°05'8 7.7
2014-Dec-10 14:33N 53°46' E 008°10'9 9.0
2014-Dec-10 13:33N 53°41' E 008°22'8 7.6
2014-Dec-10 12:33N 53°35' E 008°32'0 0.0
2014-Dec-10 11:32N 53°35' E 008°32'0 0.0
2014-Dec-10 10:33N 53°35' E 008°32'0 0.0
2014-Dec-10 09:33N 53°35' E 008°32'0 0.0
2014-Dec-10 08:33N 53°35' E 008°32'0 0.0
2014-Dec-10 07:33N 53°35' E 008°32'0 0.0
2014-Dec-10 06:33N 53°35' E 008°32'0 0.0
2014-Dec-10 05:33N 53°35' E 008°32'0 0.0
2014-Dec-10 04:33N 53°35' E 008°32'0 0.0
2014-Dec-10 03:33N 53°35' E 008°32'0 0.0
2014-Dec-10 02:33N 53°35' E 008°32'0 0.0
2014-Dec-10 01:33N 53°35' E 008°32'0 0.0
2014-Dec-10 00:33N 53°35' E 008°32'0 0.0
2014-Dec-09 23:33N 53°35' E 008°32'2 1.7
2014-Dec-09 22:33N 53°37' E 008°30'5 5.2
2014-Dec-09 21:33N 53°40' E 008°23'5 4.9
2014-Dec-09 20:33N 53°43' E 008°17'8 8.4
2014-Dec-09 19:33N 53°49' E 008°06'10 9.3
2014-Dec-09 18:31N 53°52' E 007°51'11 8.2
2014-Dec-09 17:14N 53°59' E 007°37'6 8.4
2014-Dec-09 16:34N 54°04' E 007°33'8 8.4
2014-Dec-09 15:33N 54°11' E 007°26'8 8.4
2014-Dec-09 14:33N 54°19' E 007°24'9 8.7
2014-Dec-09 13:33N 54°28' E 007°23'9 9.2
2014-Dec-09 12:33N 54°37' E 007°23'10 9.5
2014-Dec-09 11:33N 54°47' E 007°23'1010.0
2014-Dec-09 10:33N 54°57' E 007°22'1010.0
2014-Dec-09 09:33N 55°07' E 007°22'10 9.9
2014-Dec-09 08:33N 55°17' E 007°21'10 9.6
2014-Dec-09 07:33N 55°26' E 007°21'9 9.0
2014-Dec-09 06:34N 55°35' E 007°20'9 8.8
2014-Dec-09 05:33N 55°44' E 007°25'150 8.9
2014-Dec-08 12:33N 58°08' E 008°40'9 9.2
2014-Dec-08 11:34N 58°17' E 008°45'  

Dump ship's entire track history